Time,TemperatureF,DewpointF,PressureIn,WindDirection,WindDirectionDegrees,WindSpeedMPH,WindSpeedGustMPH,Humidity,HourlyPrecipIn,Conditions,Clouds,dailyrainin,SoftwareType,DateUTC
2013-09-28 00:09:00,71.6,68.9,29.79,NNE,13,-999.0,0.9,91,-99.99,,,-99.99,PyWeather,2013-09-27 22:09:00,
2013-09-28 00:19:00,71.6,68.9,29.79,ESE,119,-999.0,0.9,91,-99.99,,,-99.99,PyWeather,2013-09-27 22:19:00,
2013-09-28 00:28:00,71.6,68.9,29.79,ESE,110,0.2,0.9,91,-99.99,,,-99.99,PyWeather,2013-09-27 22:28:00,
2013-09-28 00:38:00,71.2,68.5,29.80,SSW,209,0.9,2.0,91,-99.99,,,-99.99,PyWeather,2013-09-27 22:38:00,
2013-09-28 00:48:00,70.7,68.0,29.79,East,90,-999.0,-999.0,91,-99.99,,,-99.99,PyWeather,2013-09-27 22:48:00,
2013-09-28 00:58:00,70.9,68.4,29.79,East,90,-999.0,-999.0,92,-99.99,,,-99.99,PyWeather,2013-09-27 22:58:00,
2013-09-28 01:08:00,71.1,68.5,29.79,West,281,0.9,2.0,92,-99.99,,,-99.99,PyWeather,2013-09-27 23:08:00,
2013-09-28 01:17:00,70.9,68.4,29.79,WSW,241,1.3,2.9,92,-99.99,,,-99.99,PyWeather,2013-09-27 23:17:00,
2013-09-28 01:27:00,70.7,68.2,29.78,West,272,0.2,0.9,92,-99.99,,,-99.99,PyWeather,2013-09-27 23:27:00,
2013-09-28 01:37:00,70.7,68.2,29.78,WSW,241,0.9,2.0,92,-99.99,,,-99.99,PyWeather,2013-09-27 23:37:00,
2013-09-28 01:47:00,70.3,67.8,29.78,WSW,242,0.2,2.0,92,-99.99,,,-99.99,PyWeather,2013-09-27 23:47:00,
2013-09-28 01:57:00,70.5,68.4,29.78,WSW,239,-999.0,0.9,93,-99.99,,,-99.99,PyWeather,2013-09-27 23:57:00,
2013-09-28 02:06:00,70.9,68.7,29.78,NW,305,2.2,4.0,93,-99.99,,,-99.99,PyWeather,2013-09-28 00:06:00,
2013-09-28 02:16:00,70.7,68.5,29.78,West,263,0.9,2.9,93,-99.99,,,-99.99,PyWeather,2013-09-28 00:16:00,
2013-09-28 02:26:00,70.9,68.7,29.78,West,265,0.9,2.9,93,-99.99,,,-99.99,PyWeather,2013-09-28 00:26:00,
2013-09-28 02:36:00,71.1,68.9,29.77,WSW,248,0.2,2.0,93,-99.99,,,-99.99,PyWeather,2013-09-28 00:36:00,
2013-09-28 02:46:00,71.1,68.9,29.77,West,264,1.1,2.9,93,-99.99,,,-99.99,PyWeather,2013-09-28 00:46:00,
2013-09-28 02:55:00,71.2,69.1,29.76,WSW,240,-999.0,0.9,93,-99.99,,,-99.99,PyWeather,2013-09-28 00:55:00,
2013-09-28 03:05:00,71.2,69.1,29.76,West,260,0.2,0.9,93,-99.99,,,-99.99,PyWeather,2013-09-28 01:05:00,
2013-09-28 03:15:00,71.1,68.5,29.77,West,264,0.7,2.0,92,-99.99,,,-99.99,PyWeather,2013-09-28 01:15:00,
2013-09-28 03:25:00,70.5,68.0,29.76,North,359,-999.0,0.9,92,-99.99,,,-99.99,PyWeather,2013-09-28 01:25:00,
2013-09-28 03:34:00,70.5,68.4,29.76,East,90,-999.0,-999.0,93,-99.99,,,-99.99,PyWeather,2013-09-28 01:34:00,
2013-09-28 03:44:00,70.5,68.4,29.76,East,90,-999.0,-999.0,93,-99.99,,,-99.99,PyWeather,2013-09-28 01:44:00,
2013-09-28 03:54:00,70.7,68.5,29.76,WSW,255,0.4,2.9,93,-99.99,,,-99.99,PyWeather,2013-09-28 01:54:00,
2013-09-28 04:04:00,70.5,68.4,29.75,North,5,2.5,4.0,93,-99.99,,,-99.99,PyWeather,2013-09-28 02:04:00,
2013-09-28 04:14:00,70.3,68.2,29.74,NE,46,-999.0,0.9,93,-99.99,,,-99.99,PyWeather,2013-09-28 02:14:00,
2013-09-28 04:23:00,70.2,68.0,29.75,NE,46,0.9,2.0,93,-99.99,,,-99.99,PyWeather,2013-09-28 02:23:00,
2013-09-28 04:33:00,70.0,67.8,29.74,NE,46,-999.0,0.9,93,-99.99,,,-99.99,PyWeather,2013-09-28 02:33:00,
2013-09-28 04:43:00,70.3,68.2,29.74,East,90,-999.0,-999.0,93,-99.99,,,-99.99,PyWeather,2013-09-28 02:43:00,
2013-09-28 04:53:00,70.3,68.2,29.73,NE,46,0.4,2.0,93,-99.99,,,-99.99,PyWeather,2013-09-28 02:53:00,
2013-09-28 05:03:00,69.6,67.5,29.73,NE,46,-999.0,0.9,93,-99.99,,,-99.99,PyWeather,2013-09-28 03:03:00,
2013-09-28 05:12:00,69.6,67.5,29.73,NE,46,0.2,0.9,93,-99.99,,,-99.99,PyWeather,2013-09-28 03:12:00,
2013-09-28 05:22:00,69.6,67.5,29.72,NE,46,0.9,2.0,93,-99.99,,,-99.99,PyWeather,2013-09-28 03:22:00,
2013-09-28 05:32:00,69.3,67.1,29.72,NE,46,-999.0,0.9,93,-99.99,,,-99.99,PyWeather,2013-09-28 03:32:00,
2013-09-28 05:42:00,69.3,67.1,29.73,NE,46,0.2,2.0,93,-99.99,,,-99.99,PyWeather,2013-09-28 03:42:00,
2013-09-28 05:52:00,69.6,67.8,29.72,NE,45,0.2,2.0,94,-99.99,,,-99.99,PyWeather,2013-09-28 03:52:00,
2013-09-28 06:01:00,69.6,67.5,29.72,NE,46,1.8,2.9,93,-99.99,,,-99.99,PyWeather,2013-09-28 04:01:00,
2013-09-28 06:06:00,69.4,67.3,29.72,NE,45,-999.0,0.9,93,-99.99,,,-99.99,PyWeather,2013-09-28 04:06:00,
2013-09-28 06:11:00,69.3,67.1,29.72,NE,45,-999.0,0.9,93,-99.99,,,-99.99,PyWeather,2013-09-28 04:11:00,
2013-09-28 06:21:00,69.3,67.1,29.72,NE,45,0.4,2.0,93,-99.99,,,-99.99,PyWeather,2013-09-28 04:21:00,
2013-09-28 06:26:00,69.6,67.8,29.72,NE,46,0.7,2.9,94,-99.99,,,-99.99,PyWeather,2013-09-28 04:26:00,
2013-09-28 06:36:00,69.6,67.8,29.72,NE,44,-999.0,0.9,94,-99.99,,,-99.99,PyWeather,2013-09-28 04:36:00,
2013-09-28 06:45:00,69.4,67.3,29.72,NE,46,-999.0,0.9,93,-99.99,,,-99.99,PyWeather,2013-09-28 04:45:00,
2013-09-28 06:55:00,69.4,67.6,29.71,NE,47,-999.0,0.9,94,-99.99,,,-99.99,PyWeather,2013-09-28 04:55:00,
2013-09-28 07:05:00,69.3,67.1,29.72,NE,45,0.2,2.0,93,-99.99,,,-99.99,PyWeather,2013-09-28 05:05:00,
2013-09-28 07:15:00,69.3,67.1,29.72,NE,46,-999.0,0.9,93,-99.99,,,-99.99,PyWeather,2013-09-28 05:15:00,
2013-09-28 07:25:00,69.1,67.3,29.73,NE,46,-999.0,0.9,94,-99.99,,,-99.99,PyWeather,2013-09-28 05:25:00,
2013-09-28 07:34:00,69.3,67.5,29.73,ESE,107,1.6,2.9,94,-99.99,,,-99.99,PyWeather,2013-09-28 05:34:00,
2013-09-28 07:44:00,69.1,67.3,29.73,East,97,2.2,4.0,94,-99.99,,,-99.99,PyWeather,2013-09-28 05:44:00,
2013-09-28 07:54:00,69.1,67.3,29.73,East,87,1.1,2.9,94,-99.99,,,-99.99,PyWeather,2013-09-28 05:54:00,
2013-09-28 08:04:00,68.9,67.1,29.73,East,90,-999.0,-999.0,94,-99.99,,,-99.99,PyWeather,2013-09-28 06:04:00,
2013-09-28 08:14:00,68.9,67.1,29.74,East,90,-999.0,-999.0,94,-99.99,,,-99.99,PyWeather,2013-09-28 06:14:00,
2013-09-28 08:23:00,69.3,67.8,29.73,East,92,0.2,2.0,95,-99.99,,,-99.99,PyWeather,2013-09-28 06:23:00,
2013-09-28 08:33:00,69.8,68.4,29.73,East,88,0.4,2.9,95,-99.99,,,-99.99,PyWeather,2013-09-28 06:33:00,
2013-09-28 08:43:00,70.2,68.4,29.74,SE,132,0.4,2.0,94,-99.99,,,-99.99,PyWeather,2013-09-28 06:43:00,
2013-09-28 08:53:00,70.9,69.1,29.74,South,183,2.0,4.9,94,-99.99,,,-99.99,PyWeather,2013-09-28 06:53:00,
2013-09-28 09:03:00,71.6,69.8,29.74,West,281,3.4,8.1,94,-99.99,,,-99.99,PyWeather,2013-09-28 07:03:00,
2013-09-28 09:12:00,72.3,69.8,29.74,SW,227,3.8,8.1,92,-99.99,,,-99.99,PyWeather,2013-09-28 07:12:00,
2013-09-28 09:22:00,72.9,70.2,29.75,SW,231,4.0,7.0,91,-99.99,,,-99.99,PyWeather,2013-09-28 07:22:00,
2013-09-28 09:32:00,73.2,69.8,29.75,WSW,248,7.6,13.0,89,-99.99,,,-99.99,PyWeather,2013-09-28 07:32:00,
2013-09-28 09:42:00,73.6,69.4,29.75,WNW,288,5.8,13.9,87,-99.99,,,-99.99,PyWeather,2013-09-28 07:42:00,
2013-09-28 09:51:00,74.1,69.6,29.75,WSW,252,8.3,15.0,86,-99.99,,,-99.99,PyWeather,2013-09-28 07:51:00,
2013-09-28 10:01:00,74.5,69.3,29.75,WNW,292,6.7,13.0,84,-99.99,,,-99.99,PyWeather,2013-09-28 08:01:00,
2013-09-28 10:11:00,74.8,69.3,29.75,WSW,252,9.0,13.9,83,-99.99,,,-99.99,PyWeather,2013-09-28 08:11:00,
2013-09-28 10:21:00,75.2,69.3,29.75,WSW,237,6.7,11.0,82,-99.99,,,-99.99,PyWeather,2013-09-28 08:21:00,
2013-09-28 10:31:00,75.6,69.6,29.75,SW,235,5.6,11.9,82,-99.99,,,-99.99,PyWeather,2013-09-28 08:31:00,
2013-09-28 10:40:00,75.7,69.4,29.76,WSW,237,7.6,13.0,81,-99.99,,,-99.99,PyWeather,2013-09-28 08:40:00,
2013-09-28 10:50:00,75.9,69.6,29.76,WSW,252,5.4,11.0,81,-99.99,,,-99.99,PyWeather,2013-09-28 08:50:00,
2013-09-28 11:00:00,76.1,69.8,29.76,West,265,7.2,13.0,81,-99.99,,,-99.99,PyWeather,2013-09-28 09:00:00,
2013-09-28 11:10:00,76.6,69.6,29.76,WSW,245,7.0,13.0,79,-99.99,,,-99.99,PyWeather,2013-09-28 09:10:00,
2013-09-28 11:20:00,77.0,69.3,29.75,SW,231,6.3,15.9,77,-99.99,,,-99.99,PyWeather,2013-09-28 09:20:00,
2013-09-28 11:29:00,77.7,69.1,29.75,West,276,7.0,13.9,75,-99.99,,,-99.99,PyWeather,2013-09-28 09:29:00,
2013-09-28 11:39:00,77.9,68.9,29.75,WSW,237,7.4,13.0,74,-99.99,,,-99.99,PyWeather,2013-09-28 09:39:00,
2013-09-28 11:49:00,77.9,69.3,29.75,SW,234,5.4,11.9,75,-99.99,,,-99.99,PyWeather,2013-09-28 09:49:00,
2013-09-28 11:59:00,77.5,68.9,29.75,WSW,257,7.4,13.0,75,-99.99,,,-99.99,PyWeather,2013-09-28 09:59:00,
2013-09-28 12:09:00,77.4,69.6,29.76,SW,229,10.5,17.1,77,-99.99,,,-99.99,PyWeather,2013-09-28 10:09:00,
2013-09-28 12:18:00,77.2,69.1,29.76,SW,236,8.3,17.1,76,-99.99,,,-99.99,PyWeather,2013-09-28 10:18:00,
2013-09-28 12:28:00,77.5,69.4,29.76,WSW,247,9.0,19.1,76,-99.99,,,-99.99,PyWeather,2013-09-28 10:28:00,
2013-09-28 12:38:00,77.4,69.3,29.76,WSW,237,9.2,15.9,76,-99.99,,,-99.99,PyWeather,2013-09-28 10:38:00,
2013-09-28 12:48:00,77.2,69.1,29.76,WNW,294,6.5,13.9,76,-99.99,,,-99.99,PyWeather,2013-09-28 10:48:00,
2013-09-28 12:57:00,77.2,69.1,29.75,WSW,257,5.4,10.1,76,-99.99,,,-99.99,PyWeather,2013-09-28 10:57:00,
2013-09-28 13:07:00,77.4,68.9,29.75,WSW,249,5.8,11.0,75,-99.99,,,-99.99,PyWeather,2013-09-28 11:07:00,
2013-09-28 13:17:00,77.4,68.9,29.76,WSW,243,8.3,15.9,75,-99.99,,,-99.99,PyWeather,2013-09-28 11:17:00,
2013-09-28 13:27:00,77.5,69.4,29.75,WSW,256,6.7,15.0,76,-99.99,,,-99.99,PyWeather,2013-09-28 11:27:00,
2013-09-28 13:37:00,77.7,69.1,29.75,West,280,6.1,15.9,75,-99.99,,,-99.99,PyWeather,2013-09-28 11:37:00,
2013-09-28 13:46:00,77.7,69.1,29.75,WSW,246,9.0,13.9,75,-99.99,,,-99.99,PyWeather,2013-09-28 11:46:00,
2013-09-28 13:56:00,78.1,69.1,29.74,WSW,251,5.8,11.9,74,-99.99,,,-99.99,PyWeather,2013-09-28 11:56:00,
2013-09-28 14:11:00,78.3,68.9,29.74,WSW,243,7.9,15.0,73,-99.99,,,-99.99,PyWeather,2013-09-28 12:11:00,
2013-09-28 14:21:00,78.3,68.5,29.74,SW,233,8.5,15.9,72,-99.99,,,-99.99,PyWeather,2013-09-28 12:21:00,
2013-09-28 14:31:00,78.1,68.7,29.74,SW,230,5.2,11.0,73,-99.99,,,-99.99,PyWeather,2013-09-28 12:31:00,
2013-09-28 14:40:00,78.1,68.7,29.74,WSW,245,6.1,10.1,73,-99.99,,,-99.99,PyWeather,2013-09-28 12:40:00,
2013-09-28 14:50:00,78.1,68.7,29.74,WSW,246,5.8,11.9,73,-99.99,,,-99.99,PyWeather,2013-09-28 12:50:00,
2013-09-28 15:00:00,77.7,68.4,29.74,WSW,240,8.3,13.0,73,-99.99,,,-99.99,PyWeather,2013-09-28 13:00:00,
2013-09-28 15:10:00,77.9,68.2,29.74,WSW,245,6.7,11.9,72,-99.99,,,-99.99,PyWeather,2013-09-28 13:10:00,
2013-09-28 15:20:00,78.1,68.7,29.73,SW,231,5.8,11.9,73,-99.99,,,-99.99,PyWeather,2013-09-28 13:20:00,
2013-09-28 15:29:00,78.8,68.5,29.73,SW,225,5.8,11.0,71,-99.99,,,-99.99,PyWeather,2013-09-28 13:29:00,
2013-09-28 15:39:00,78.8,68.2,29.73,WSW,246,6.7,11.0,70,-99.99,,,-99.99,PyWeather,2013-09-28 13:39:00,
2013-09-28 15:49:00,79.2,67.6,29.73,SW,233,5.4,10.1,68,-99.99,,,-99.99,PyWeather,2013-09-28 13:49:00,
2013-09-28 15:59:00,79.7,67.3,29.72,SW,214,7.9,13.9,66,-99.99,,,-99.99,PyWeather,2013-09-28 13:59:00,
2013-09-28 16:08:00,80.2,66.6,29.73,SW,219,6.3,13.9,63,-99.99,,,-99.99,PyWeather,2013-09-28 14:08:00,
2013-09-28 16:18:00,80.8,66.0,29.72,SW,227,9.2,15.0,61,-99.99,,,-99.99,PyWeather,2013-09-28 14:18:00,
2013-09-28 16:28:00,80.1,66.7,29.73,SSW,210,7.9,17.1,64,-99.99,,,-99.99,PyWeather,2013-09-28 14:28:00,
2013-09-28 16:38:00,79.5,66.7,29.72,SW,214,8.5,15.0,65,-99.99,,,-99.99,PyWeather,2013-09-28 14:38:00,
2013-09-28 16:48:00,79.0,66.6,29.72,SW,216,6.3,11.9,66,-99.99,,,-99.99,PyWeather,2013-09-28 14:48:00,
2013-09-28 16:57:00,78.6,66.4,29.73,SW,219,7.0,13.9,66,-99.99,,,-99.99,PyWeather,2013-09-28 14:57:00,
2013-09-28 17:07:00,78.4,66.6,29.72,SW,236,5.2,11.9,67,-99.99,,,-99.99,PyWeather,2013-09-28 15:07:00,
2013-09-28 17:17:00,78.1,67.1,29.73,SW,222,7.0,13.0,69,-99.99,,,-99.99,PyWeather,2013-09-28 15:17:00,
2013-09-28 17:27:00,77.7,67.1,29.73,SW,232,7.2,13.0,70,-99.99,,,-99.99,PyWeather,2013-09-28 15:27:00,
2013-09-28 17:37:00,77.4,68.0,29.72,WSW,254,7.2,13.9,73,-99.99,,,-99.99,PyWeather,2013-09-28 15:37:00,
2013-09-28 17:46:00,77.0,68.9,29.70,WSW,241,4.9,11.0,76,-99.99,,,-99.99,PyWeather,2013-09-28 15:46:00,
2013-09-28 17:56:00,77.4,69.6,29.70,South,189,5.2,10.1,77,-99.99,,,-99.99,PyWeather,2013-09-28 15:56:00,
2013-09-28 18:06:00,77.2,69.8,29.71,WSW,237,6.1,9.0,78,-99.99,,,-99.99,PyWeather,2013-09-28 16:06:00,
2013-09-28 18:16:00,76.6,69.3,29.72,SW,223,6.3,11.0,78,-99.99,,,-99.99,PyWeather,2013-09-28 16:16:00,
2013-09-28 18:26:00,76.5,69.1,29.71,SSW,198,5.8,10.1,78,-99.99,,,-99.99,PyWeather,2013-09-28 16:26:00,
2013-09-28 18:35:00,76.5,68.7,29.72,SSW,206,6.1,11.0,77,-99.99,,,-99.99,PyWeather,2013-09-28 16:35:00,
2013-09-28 18:45:00,76.3,68.9,29.72,SW,222,6.3,11.9,78,-99.99,,,-99.99,PyWeather,2013-09-28 16:45:00,
2013-09-28 18:55:00,76.3,69.3,29.72,SW,232,7.6,15.0,79,-99.99,,,-99.99,PyWeather,2013-09-28 16:55:00,
2013-09-28 19:05:00,76.1,68.7,29.73,SW,218,8.1,15.0,78,-99.99,,,-99.99,PyWeather,2013-09-28 17:05:00,
2013-09-28 19:15:00,75.9,68.5,29.72,SW,227,6.7,15.0,78,-99.99,,,-99.99,PyWeather,2013-09-28 17:15:00,
2013-09-28 19:24:00,75.9,68.2,29.72,SW,214,4.9,9.0,77,-99.99,,,-99.99,PyWeather,2013-09-28 17:24:00,
2013-09-28 19:34:00,75.7,67.6,29.72,WSW,243,6.3,11.9,76,-99.99,,,-99.99,PyWeather,2013-09-28 17:34:00,
2013-09-28 19:44:00,75.7,67.6,29.72,SSW,201,4.0,8.1,76,-99.99,,,-99.99,PyWeather,2013-09-28 17:44:00,
2013-09-28 19:54:00,75.6,67.8,29.71,SW,227,2.7,7.0,77,-99.99,,,-99.99,PyWeather,2013-09-28 17:54:00,
2013-09-28 20:04:00,75.2,67.5,29.71,SW,216,3.1,6.1,77,-99.99,,,-99.99,PyWeather,2013-09-28 18:04:00,
2013-09-28 20:13:00,75.0,67.3,29.71,SW,229,2.5,4.9,77,-99.99,,,-99.99,PyWeather,2013-09-28 18:13:00,
2013-09-28 20:23:00,74.8,67.8,29.72,WSW,237,3.8,8.1,79,-99.99,,,-99.99,PyWeather,2013-09-28 18:23:00,
2013-09-28 20:33:00,74.7,68.4,29.72,SW,234,4.7,8.1,81,-99.99,,,-99.99,PyWeather,2013-09-28 18:33:00,
2013-09-28 20:43:00,74.3,68.4,29.72,SW,236,4.3,6.1,82,-99.99,,,-99.99,PyWeather,2013-09-28 18:43:00,
2013-09-28 20:53:00,74.1,68.5,29.73,SW,220,4.0,8.1,83,-99.99,,,-99.99,PyWeather,2013-09-28 18:53:00,
2013-09-28 21:02:00,73.9,68.7,29.73,SW,228,4.0,7.0,84,-99.99,,,-99.99,PyWeather,2013-09-28 19:02:00,
2013-09-28 21:12:00,73.9,68.7,29.74,SSW,210,4.7,9.0,84,-99.99,,,-99.99,PyWeather,2013-09-28 19:12:00,
2013-09-28 21:22:00,73.8,68.4,29.73,WSW,243,4.0,9.0,83,-99.99,,,-99.99,PyWeather,2013-09-28 19:22:00,
2013-09-28 21:32:00,73.8,68.0,29.74,SW,220,4.9,13.0,82,-99.99,,,-99.99,PyWeather,2013-09-28 19:32:00,
2013-09-28 21:42:00,73.9,67.8,29.74,SW,215,4.5,8.1,81,-99.99,,,-99.99,PyWeather,2013-09-28 19:42:00,
2013-09-28 21:52:00,73.9,67.5,29.74,SW,227,7.9,15.9,80,-99.99,,,-99.99,PyWeather,2013-09-28 19:52:00,
2013-09-28 22:01:00,74.1,66.7,29.74,SW,228,6.1,13.0,78,-99.99,,,-99.99,PyWeather,2013-09-28 20:01:00,
2013-09-28 22:11:00,74.3,66.6,29.75,SW,221,6.7,11.9,77,-99.99,,,-99.99,PyWeather,2013-09-28 20:11:00,
2013-09-28 22:21:00,74.3,66.6,29.75,SSW,208,5.2,10.1,77,-99.99,,,-99.99,PyWeather,2013-09-28 20:21:00,
2013-09-28 22:31:00,74.3,66.9,29.74,SSW,198,4.5,10.1,78,-99.99,,,-99.99,PyWeather,2013-09-28 20:31:00,
2013-09-28 22:40:00,74.1,67.1,29.74,SSW,212,6.5,11.9,79,-99.99,,,-99.99,PyWeather,2013-09-28 20:40:00,
2013-09-28 22:50:00,74.1,67.6,29.74,SW,225,4.7,9.0,80,-99.99,,,-99.99,PyWeather,2013-09-28 20:50:00,
2013-09-28 23:00:00,74.3,67.6,29.73,SSW,211,6.3,11.9,80,-99.99,,,-99.99,PyWeather,2013-09-28 21:00:00,
2013-09-28 23:06:00,74.3,67.6,29.74,SW,220,7.0,13.0,80,-99.99,,,-99.99,PyWeather,2013-09-28 21:06:00,
2013-09-28 23:15:00,74.5,66.4,29.74,SW,221,7.6,15.0,76,-99.99,,,-99.99,PyWeather,2013-09-28 21:15:00,
2013-09-28 23:25:00,74.7,65.5,29.73,SW,234,8.1,15.0,73,-99.99,,,-99.99,PyWeather,2013-09-28 21:25:00,
2013-09-28 23:34:00,74.8,66.0,29.73,WSW,243,7.4,13.9,74,-99.99,,,-99.99,PyWeather,2013-09-28 21:34:00,
2013-09-28 23:44:00,74.7,65.8,29.74,SW,221,8.5,17.1,74,-99.99,,,-99.99,PyWeather,2013-09-28 21:44:00,
2013-09-28 23:54:00,74.5,66.0,29.74,WSW,244,8.8,21.1,75,-99.99,,,-99.99,PyWeather,2013-09-28 21:54:00,